sensor_id;sensor_type;location;lat;lon;timestamp;P1;durP1;ratioP1;P2;durP2;ratioP2
20294;SDS011;10306;52.128;5.208;2023-04-03T00:00:35;1.63;;;1.53;;
20294;SDS011;10306;52.128;5.208;2023-04-03T00:03:01;2.93;;;1.37;;
20294;SDS011;10306;52.128;5.208;2023-04-03T00:05:26;4.20;;;1.83;;
20294;SDS011;10306;52.128;5.208;2023-04-03T00:07:52;1.77;;;1.43;;
20294;SDS011;10306;52.128;5.208;2023-04-03T00:10:18;1.50;;;1.40;;
20294;SDS011;10306;52.128;5.208;2023-04-03T00:12:44;2.13;;;1.50;;
20294;SDS011;10306;52.128;5.208;2023-04-03T00:15:10;1.83;;;1.27;;
20294;SDS011;10306;52.128;5.208;2023-04-03T00:17:36;1.43;;;1.33;;
20294;SDS011;10306;52.128;5.208;2023-04-03T00:20:03;9.13;;;1.90;;
20294;SDS011;10306;52.128;5.208;2023-04-03T00:22:29;1.53;;;1.40;;
20294;SDS011;10306;52.128;5.208;2023-04-03T00:24:55;1.27;;;1.00;;
20294;SDS011;10306;52.128;5.208;2023-04-03T00:27:22;5.10;;;1.60;;
20294;SDS011;10306;52.128;5.208;2023-04-03T00:29:48;1.37;;;1.33;;
20294;SDS011;10306;52.128;5.208;2023-04-03T00:32:14;1.43;;;1.37;;
20294;SDS011;10306;52.128;5.208;2023-04-03T00:34:40;3.07;;;1.47;;
20294;SDS011;10306;52.128;5.208;2023-04-03T00:37:06;1.43;;;1.33;;
20294;SDS011;10306;52.128;5.208;2023-04-03T00:39:32;1.40;;;1.30;;
20294;SDS011;10306;52.128;5.208;2023-04-03T00:41:58;1.10;;;1.10;;
20294;SDS011;10306;52.128;5.208;2023-04-03T00:46:59;1.20;;;1.13;;
20294;SDS011;10306;52.128;5.208;2023-04-03T00:49:26;1.80;;;1.10;;
20294;SDS011;10306;52.128;5.208;2023-04-03T00:51:52;1.80;;;1.70;;
20294;SDS011;10306;52.128;5.208;2023-04-03T00:54:18;1.47;;;1.47;;
20294;SDS011;10306;52.128;5.208;2023-04-03T00:56:44;1.47;;;1.37;;
20294;SDS011;10306;52.128;5.208;2023-04-03T00:59:13;1.40;;;1.30;;
20294;SDS011;10306;52.128;5.208;2023-04-03T01:01:40;3.77;;;1.27;;
20294;SDS011;10306;52.128;5.208;2023-04-03T01:04:26;4.40;;;1.60;;
20294;SDS011;10306;52.128;5.208;2023-04-03T01:06:53;1.57;;;1.47;;
20294;SDS011;10306;52.128;5.208;2023-04-03T01:09:20;1.57;;;1.47;;
20294;SDS011;10306;52.128;5.208;2023-04-03T01:11:47;1.50;;;1.50;;
20294;SDS011;10306;52.128;5.208;2023-04-03T01:14:13;1.70;;;1.60;;
20294;SDS011;10306;52.128;5.208;2023-04-03T01:16:39;1.73;;;1.63;;
20294;SDS011;10306;52.128;5.208;2023-04-03T01:19:06;1.40;;;1.30;;
20294;SDS011;10306;52.128;5.208;2023-04-03T01:24:29;2.47;;;1.30;;
20294;SDS011;10306;52.128;5.208;2023-04-03T01:26:56;1.30;;;1.27;;
20294;SDS011;10306;52.128;5.208;2023-04-03T01:29:22;1.33;;;1.33;;
20294;SDS011;10306;52.128;5.208;2023-04-03T01:31:49;1.53;;;1.50;;
20294;SDS011;10306;52.128;5.208;2023-04-03T01:34:15;4.47;;;2.10;;
20294;SDS011;10306;52.128;5.208;2023-04-03T01:36:41;2.93;;;1.43;;
20294;SDS011;10306;52.128;5.208;2023-04-03T01:39:08;1.53;;;1.40;;
20294;SDS011;10306;52.128;5.208;2023-04-03T01:41:34;2.23;;;1.50;;
20294;SDS011;10306;52.128;5.208;2023-04-03T01:44:00;1.67;;;1.57;;
20294;SDS011;10306;52.128;5.208;2023-04-03T01:46:26;1.50;;;1.40;;
20294;SDS011;10306;52.128;5.208;2023-04-03T01:48:52;2.87;;;1.70;;
20294;SDS011;10306;52.128;5.208;2023-04-03T01:51:18;1.70;;;1.60;;
20294;SDS011;10306;52.128;5.208;2023-04-03T01:53:44;1.40;;;1.30;;
20294;SDS011;10306;52.128;5.208;2023-04-03T01:56:10;2.37;;;1.70;;
20294;SDS011;10306;52.128;5.208;2023-04-03T01:58:36;1.70;;;1.60;;
20294;SDS011;10306;52.128;5.208;2023-04-03T02:01:02;3.47;;;1.63;;
20294;SDS011;10306;52.128;5.208;2023-04-03T02:03:27;1.60;;;1.50;;
20294;SDS011;10306;52.128;5.208;2023-04-03T02:05:53;1.97;;;1.53;;
20294;SDS011;10306;52.128;5.208;2023-04-03T02:08:20;2.27;;;1.57;;
20294;SDS011;10306;52.128;5.208;2023-04-03T02:10:49;2.57;;;1.50;;
20294;SDS011;10306;52.128;5.208;2023-04-03T02:13:16;1.80;;;1.70;;
20294;SDS011;10306;52.128;5.208;2023-04-03T02:15:42;1.53;;;1.43;;
20294;SDS011;10306;52.128;5.208;2023-04-03T02:18:08;1.63;;;1.50;;
20294;SDS011;10306;52.128;5.208;2023-04-03T02:20:34;2.33;;;1.63;;
20294;SDS011;10306;52.128;5.208;2023-04-03T02:23:00;1.93;;;1.70;;
20294;SDS011;10306;52.128;5.208;2023-04-03T02:25:26;4.23;;;1.50;;
20294;SDS011;10306;52.128;5.208;2023-04-03T02:27:52;1.70;;;1.60;;
20294;SDS011;10306;52.128;5.208;2023-04-03T02:30:18;2.83;;;1.43;;
20294;SDS011;10306;52.128;5.208;2023-04-03T02:32:44;1.60;;;1.50;;
20294;SDS011;10306;52.128;5.208;2023-04-03T02:35:11;2.43;;;1.40;;
20294;SDS011;10306;52.128;5.208;2023-04-03T02:37:37;1.67;;;1.50;;
20294;SDS011;10306;52.128;5.208;2023-04-03T02:40:04;1.80;;;1.70;;
20294;SDS011;10306;52.128;5.208;2023-04-03T02:42:30;2.10;;;1.63;;
20294;SDS011;10306;52.128;5.208;2023-04-03T02:44:56;1.70;;;1.60;;
20294;SDS011;10306;52.128;5.208;2023-04-03T02:47:22;1.50;;;1.40;;
20294;SDS011;10306;52.128;5.208;2023-04-03T02:49:48;1.60;;;1.50;;
20294;SDS011;10306;52.128;5.208;2023-04-03T02:52:14;2.20;;;1.67;;
20294;SDS011;10306;52.128;5.208;2023-04-03T02:54:40;1.43;;;1.43;;
20294;SDS011;10306;52.128;5.208;2023-04-03T02:57:06;2.20;;;1.50;;
20294;SDS011;10306;52.128;5.208;2023-04-03T02:59:38;1.47;;;1.47;;
20294;SDS011;10306;52.128;5.208;2023-04-03T03:02:06;1.83;;;1.57;;
20294;SDS011;10306;52.128;5.208;2023-04-03T03:04:32;1.90;;;1.80;;
20294;SDS011;10306;52.128;5.208;2023-04-03T03:06:58;1.80;;;1.70;;
20294;SDS011;10306;52.128;5.208;2023-04-03T03:09:24;2.57;;;1.83;;
20294;SDS011;10306;52.128;5.208;2023-04-03T03:11:51;2.13;;;1.90;;
20294;SDS011;10306;52.128;5.208;2023-04-03T03:14:17;2.90;;;1.60;;
20294;SDS011;10306;52.128;5.208;2023-04-03T03:16:43;1.83;;;1.57;;
20294;SDS011;10306;52.128;5.208;2023-04-03T03:19:09;1.60;;;1.50;;
20294;SDS011;10306;52.128;5.208;2023-04-03T03:21:35;4.80;;;1.80;;
20294;SDS011;10306;52.128;5.208;2023-04-03T03:24:01;2.17;;;1.93;;
20294;SDS011;10306;52.128;5.208;2023-04-03T03:26:27;2.20;;;1.53;;
20294;SDS011;10306;52.128;5.208;2023-04-03T03:28:53;1.73;;;1.63;;
20294;SDS011;10306;52.128;5.208;2023-04-03T03:31:19;1.97;;;1.50;;
20294;SDS011;10306;52.128;5.208;2023-04-03T03:33:45;1.73;;;1.60;;
20294;SDS011;10306;52.128;5.208;2023-04-03T03:36:11;1.73;;;1.53;;
20294;SDS011;10306;52.128;5.208;2023-04-03T03:38:37;2.13;;;1.50;;
20294;SDS011;10306;52.128;5.208;2023-04-03T03:41:03;4.40;;;1.70;;
20294;SDS011;10306;52.128;5.208;2023-04-03T03:43:29;1.67;;;1.57;;
20294;SDS011;10306;52.128;5.208;2023-04-03T03:45:55;1.40;;;1.40;;
20294;SDS011;10306;52.128;5.208;2023-04-03T03:48:21;1.73;;;1.50;;
20294;SDS011;10306;52.128;5.208;2023-04-03T03:50:48;2.17;;;1.80;;
20294;SDS011;10306;52.128;5.208;2023-04-03T03:53:14;1.60;;;1.50;;
20294;SDS011;10306;52.128;5.208;2023-04-03T03:55:41;1.50;;;1.40;;
20294;SDS011;10306;52.128;5.208;2023-04-03T03:58:07;3.57;;;2.00;;
20294;SDS011;10306;52.128;5.208;2023-04-03T04:00:33;2.87;;;1.90;;
20294;SDS011;10306;52.128;5.208;2023-04-03T04:02:59;1.80;;;1.67;;
20294;SDS011;10306;52.128;5.208;2023-04-03T04:05:25;2.73;;;2.10;;
20294;SDS011;10306;52.128;5.208;2023-04-03T04:07:51;6.40;;;1.80;;
20294;SDS011;10306;52.128;5.208;2023-04-03T04:10:17;5.23;;;1.77;;
20294;SDS011;10306;52.128;5.208;2023-04-03T04:12:43;2.17;;;1.97;;
20294;SDS011;10306;52.128;5.208;2023-04-03T04:15:10;1.97;;;1.70;;
20294;SDS011;10306;52.128;5.208;2023-04-03T04:17:36;1.93;;;1.83;;
20294;SDS011;10306;52.128;5.208;2023-04-03T04:20:02;2.03;;;1.93;;
20294;SDS011;10306;52.128;5.208;2023-04-03T04:22:29;6.77;;;2.10;;
20294;SDS011;10306;52.128;5.208;2023-04-03T04:24:55;2.77;;;1.87;;
20294;SDS011;10306;52.128;5.208;2023-04-03T04:27:21;1.53;;;1.43;;
20294;SDS011;10306;52.128;5.208;2023-04-03T04:29:47;5.97;;;2.47;;
20294;SDS011;10306;52.128;5.208;2023-04-03T04:32:13;3.63;;;1.47;;
20294;SDS011;10306;52.128;5.208;2023-04-03T04:34:39;1.90;;;1.80;;
20294;SDS011;10306;52.128;5.208;2023-04-03T04:37:05;2.20;;;2.10;;
20294;SDS011;10306;52.128;5.208;2023-04-03T04:39:31;2.03;;;1.93;;
20294;SDS011;10306;52.128;5.208;2023-04-03T04:41:57;2.80;;;2.13;;
20294;SDS011;10306;52.128;5.208;2023-04-03T04:44:23;3.13;;;1.80;;
20294;SDS011;10306;52.128;5.208;2023-04-03T04:46:49;2.20;;;2.10;;
20294;SDS011;10306;52.128;5.208;2023-04-03T04:49:15;2.07;;;1.97;;
20294;SDS011;10306;52.128;5.208;2023-04-03T04:51:41;2.10;;;2.00;;
20294;SDS011;10306;52.128;5.208;2023-04-03T04:54:07;2.97;;;1.80;;
20294;SDS011;10306;52.128;5.208;2023-04-03T04:56:33;2.77;;;1.90;;
20294;SDS011;10306;52.128;5.208;2023-04-03T04:58:59;2.17;;;1.93;;
20294;SDS011;10306;52.128;5.208;2023-04-03T05:01:25;2.73;;;2.10;;
20294;SDS011;10306;52.128;5.208;2023-04-03T05:03:51;2.50;;;2.20;;
20294;SDS011;10306;52.128;5.208;2023-04-03T05:06:17;2.57;;;2.37;;
20294;SDS011;10306;52.128;5.208;2023-04-03T05:08:43;3.23;;;2.00;;
20294;SDS011;10306;52.128;5.208;2023-04-03T05:11:09;2.33;;;2.10;;
20294;SDS011;10306;52.128;5.208;2023-04-03T05:13:35;2.10;;;1.93;;
20294;SDS011;10306;52.128;5.208;2023-04-03T05:16:01;2.60;;;2.40;;
20294;SDS011;10306;52.128;5.208;2023-04-03T05:18:27;3.57;;;2.10;;
20294;SDS011;10306;52.128;5.208;2023-04-03T05:20:53;6.53;;;2.53;;
20294;SDS011;10306;52.128;5.208;2023-04-03T05:23:19;2.60;;;2.40;;
20294;SDS011;10306;52.128;5.208;2023-04-03T05:25:45;2.97;;;2.30;;
20294;SDS011;10306;52.128;5.208;2023-04-03T05:28:12;2.70;;;2.50;;
20294;SDS011;10306;52.128;5.208;2023-04-03T05:30:38;4.50;;;2.77;;
20294;SDS011;10306;52.128;5.208;2023-04-03T05:33:04;2.63;;;2.37;;
20294;SDS011;10306;52.128;5.208;2023-04-03T05:35:30;4.23;;;2.27;;
20294;SDS011;10306;52.128;5.208;2023-04-03T05:37:57;4.90;;;2.23;;
20294;SDS011;10306;52.128;5.208;2023-04-03T05:40:23;4.47;;;2.37;;
20294;SDS011;10306;52.128;5.208;2023-04-03T05:42:49;4.23;;;2.63;;
20294;SDS011;10306;52.128;5.208;2023-04-03T05:45:15;3.17;;;2.47;;
20294;SDS011;10306;52.128;5.208;2023-04-03T05:47:41;2.77;;;2.57;;
20294;SDS011;10306;52.128;5.208;2023-04-03T05:50:07;4.43;;;2.50;;
20294;SDS011;10306;52.128;5.208;2023-04-03T05:52:35;3.43;;;2.60;;
20294;SDS011;10306;52.128;5.208;2023-04-03T05:55:02;2.77;;;2.50;;
20294;SDS011;10306;52.128;5.208;2023-04-03T05:57:28;2.30;;;2.00;;
20294;SDS011;10306;52.128;5.208;2023-04-03T05:59:54;3.50;;;2.30;;
20294;SDS011;10306;52.128;5.208;2023-04-03T06:02:20;4.47;;;2.37;;
20294;SDS011;10306;52.128;5.208;2023-04-03T06:04:47;3.07;;;2.40;;
20294;SDS011;10306;52.128;5.208;2023-04-03T06:07:17;6.27;;;2.30;;
20294;SDS011;10306;52.128;5.208;2023-04-03T06:09:46;5.30;;;2.30;;
20294;SDS011;10306;52.128;5.208;2023-04-03T06:12:12;7.67;;;2.47;;
20294;SDS011;10306;52.128;5.208;2023-04-03T06:14:38;3.53;;;2.13;;
20294;SDS011;10306;52.128;5.208;2023-04-03T06:17:04;3.43;;;2.20;;
20294;SDS011;10306;52.128;5.208;2023-04-03T06:19:31;4.53;;;2.57;;
20294;SDS011;10306;52.128;5.208;2023-04-03T06:21:57;3.57;;;2.33;;
20294;SDS011;10306;52.128;5.208;2023-04-03T06:24:23;2.43;;;2.13;;
20294;SDS011;10306;52.128;5.208;2023-04-03T06:26:50;2.60;;;2.40;;
20294;SDS011;10306;52.128;5.208;2023-04-03T06:29:17;3.87;;;2.10;;
20294;SDS011;10306;52.128;5.208;2023-04-03T06:31:43;4.23;;;2.20;;
20294;SDS011;10306;52.128;5.208;2023-04-03T06:34:09;3.73;;;2.03;;
20294;SDS011;10306;52.128;5.208;2023-04-03T06:36:36;3.60;;;2.20;;
20294;SDS011;10306;52.128;5.208;2023-04-03T06:39:03;2.13;;;1.90;;
20294;SDS011;10306;52.128;5.208;2023-04-03T06:41:29;2.73;;;1.93;;
20294;SDS011;10306;52.128;5.208;2023-04-03T06:43:56;1.93;;;1.80;;
20294;SDS011;10306;52.128;5.208;2023-04-03T06:46:23;2.20;;;2.10;;
20294;SDS011;10306;52.128;5.208;2023-04-03T06:48:49;1.93;;;1.70;;
20294;SDS011;10306;52.128;5.208;2023-04-03T06:53:42;6.10;;;2.10;;
20294;SDS011;10306;52.128;5.208;2023-04-03T06:56:08;2.47;;;2.10;;
20294;SDS011;10306;52.128;5.208;2023-04-03T06:58:34;6.83;;;1.80;;
20294;SDS011;10306;52.128;5.208;2023-04-03T07:01:01;3.37;;;2.00;;
20294;SDS011;10306;52.128;5.208;2023-04-03T07:03:27;1.80;;;1.70;;
20294;SDS011;10306;52.128;5.208;2023-04-03T07:05:53;3.40;;;1.97;;
20294;SDS011;10306;52.128;5.208;2023-04-03T07:08:19;1.87;;;1.70;;
20294;SDS011;10306;52.128;5.208;2023-04-03T07:10:45;3.07;;;1.70;;
20294;SDS011;10306;52.128;5.208;2023-04-03T07:13:11;7.77;;;1.87;;
20294;SDS011;10306;52.128;5.208;2023-04-03T07:15:37;3.47;;;1.73;;
20294;SDS011;10306;52.128;5.208;2023-04-03T07:18:03;1.90;;;1.80;;
20294;SDS011;10306;52.128;5.208;2023-04-03T07:20:30;2.47;;;1.57;;
20294;SDS011;10306;52.128;5.208;2023-04-03T07:22:56;4.90;;;1.73;;
20294;SDS011;10306;52.128;5.208;2023-04-03T07:25:22;4.93;;;1.60;;
20294;SDS011;10306;52.128;5.208;2023-04-03T07:27:48;3.17;;;1.83;;
20294;SDS011;10306;52.128;5.208;2023-04-03T07:30:14;2.03;;;1.77;;
20294;SDS011;10306;52.128;5.208;2023-04-03T07:32:40;2.70;;;1.40;;
20294;SDS011;10306;52.128;5.208;2023-04-03T07:35:06;2.67;;;2.07;;
20294;SDS011;10306;52.128;5.208;2023-04-03T07:37:32;2.13;;;1.70;;
20294;SDS011;10306;52.128;5.208;2023-04-03T07:39:58;1.50;;;1.40;;
20294;SDS011;10306;52.128;5.208;2023-04-03T07:42:26;4.30;;;1.47;;
20294;SDS011;10306;52.128;5.208;2023-04-03T07:44:53;1.67;;;1.57;;
20294;SDS011;10306;52.128;5.208;2023-04-03T07:47:19;2.57;;;1.40;;
20294;SDS011;10306;52.128;5.208;2023-04-03T07:49:46;1.53;;;1.40;;
20294;SDS011;10306;52.128;5.208;2023-04-03T07:52:12;3.27;;;1.63;;
20294;SDS011;10306;52.128;5.208;2023-04-03T07:54:40;1.83;;;1.20;;
20294;SDS011;10306;52.128;5.208;2023-04-03T07:57:06;3.87;;;1.57;;
20294;SDS011;10306;52.128;5.208;2023-04-03T07:59:32;1.90;;;1.57;;
20294;SDS011;10306;52.128;5.208;2023-04-03T08:01:58;2.10;;;1.50;;
20294;SDS011;10306;52.128;5.208;2023-04-03T08:04:24;2.20;;;1.33;;
20294;SDS011;10306;52.128;5.208;2023-04-03T08:06:51;1.93;;;1.30;;
20294;SDS011;10306;52.128;5.208;2023-04-03T08:09:17;2.00;;;1.43;;
20294;SDS011;10306;52.128;5.208;2023-04-03T08:11:44;1.37;;;1.27;;
20294;SDS011;10306;52.128;5.208;2023-04-03T08:14:11;1.90;;;1.30;;
20294;SDS011;10306;52.128;5.208;2023-04-03T08:16:41;1.43;;;1.20;;
20294;SDS011;10306;52.128;5.208;2023-04-03T08:19:08;3.17;;;1.43;;
20294;SDS011;10306;52.128;5.208;2023-04-03T08:21:35;2.43;;;0.97;;
20294;SDS011;10306;52.128;5.208;2023-04-03T08:24:01;3.40;;;1.20;;
20294;SDS011;10306;52.128;5.208;2023-04-03T08:26:29;2.00;;;1.20;;
20294;SDS011;10306;52.128;5.208;2023-04-03T08:28:55;4.53;;;1.20;;
20294;SDS011;10306;52.128;5.208;2023-04-03T08:31:21;1.43;;;1.10;;
20294;SDS011;10306;52.128;5.208;2023-04-03T08:33:47;1.40;;;1.27;;
20294;SDS011;10306;52.128;5.208;2023-04-03T08:38:46;1.17;;;1.00;;
20294;SDS011;10306;52.128;5.208;2023-04-03T08:41:20;1.00;;;1.00;;
20294;SDS011;10306;52.128;5.208;2023-04-03T08:44:04;1.20;;;1.10;;
20294;SDS011;10306;52.128;5.208;2023-04-03T08:49:21;1.20;;;1.10;;
20294;SDS011;10306;52.128;5.208;2023-04-03T08:51:48;1.07;;;1.07;;
20294;SDS011;10306;52.128;5.208;2023-04-03T08:54:24;0.90;;;0.90;;
20294;SDS011;10306;52.128;5.208;2023-04-03T08:56:51;2.17;;;1.10;;
20294;SDS011;10306;52.128;5.208;2023-04-03T08:59:18;2.77;;;1.00;;
20294;SDS011;10306;52.128;5.208;2023-04-03T09:01:47;1.30;;;1.00;;
20294;SDS011;10306;52.128;5.208;2023-04-03T09:04:14;0.67;;;0.67;;
20294;SDS011;10306;52.128;5.208;2023-04-03T09:06:42;1.00;;;0.90;;
20294;SDS011;10306;52.128;5.208;2023-04-03T09:21:48;0.80;;;0.70;;
20294;SDS011;10306;52.128;5.208;2023-04-03T09:24:15;1.23;;;0.77;;
20294;SDS011;10306;52.128;5.208;2023-04-03T09:29:21;1.50;;;0.70;;
20294;SDS011;10306;52.128;5.208;2023-04-03T09:31:48;1.40;;;0.70;;
20294;SDS011;10306;52.128;5.208;2023-04-03T09:34:25;1.10;;;0.70;;
20294;SDS011;10306;52.128;5.208;2023-04-03T09:36:52;0.60;;;0.60;;
20294;SDS011;10306;52.128;5.208;2023-04-03T09:39:26;0.83;;;0.80;;
20294;SDS011;10306;52.128;5.208;2023-04-03T09:41:56;0.50;;;0.50;;
20294;SDS011;10306;52.128;5.208;2023-04-03T09:44:27;0.53;;;0.53;;
20294;SDS011;10306;52.128;5.208;2023-04-03T09:46:53;1.10;;;0.50;;
20294;SDS011;10306;52.128;5.208;2023-04-03T09:49:19;0.57;;;0.57;;
20294;SDS011;10306;52.128;5.208;2023-04-03T09:51:45;1.63;;;0.70;;
20294;SDS011;10306;52.128;5.208;2023-04-03T09:54:25;0.40;;;0.40;;
20294;SDS011;10306;52.128;5.208;2023-04-03T09:56:52;0.67;;;0.60;;
20294;SDS011;10306;52.128;5.208;2023-04-03T09:59:20;0.43;;;0.43;;
20294;SDS011;10306;52.128;5.208;2023-04-03T10:02:32;0.50;;;0.50;;
20294;SDS011;10306;52.128;5.208;2023-04-03T10:04:39;0.50;;;0.50;;
20294;SDS011;10306;52.128;5.208;2023-04-03T10:07:25;1.07;;;0.50;;
20294;SDS011;10306;52.128;5.208;2023-04-03T10:09:55;0.60;;;0.60;;
20294;SDS011;10306;52.128;5.208;2023-04-03T10:12:22;0.57;;;0.57;;
20294;SDS011;10306;52.128;5.208;2023-04-03T10:14:55;0.73;;;0.50;;
20294;SDS011;10306;52.128;5.208;2023-04-03T10:19:58;0.50;;;0.50;;
20294;SDS011;10306;52.128;5.208;2023-04-03T10:22:37;0.60;;;0.40;;
20294;SDS011;10306;52.128;5.208;2023-04-03T10:33:36;0.77;;;0.47;;
20294;SDS011;10306;52.128;5.208;2023-04-03T10:36:14;1.07;;;0.80;;
20294;SDS011;10306;52.128;5.208;2023-04-03T10:44:20;0.60;;;0.60;;
20294;SDS011;10306;52.128;5.208;2023-04-03T10:46:57;0.57;;;0.57;;
20294;SDS011;10306;52.128;5.208;2023-04-03T10:49:33;0.60;;;0.60;;
20294;SDS011;10306;52.128;5.208;2023-04-03T10:52:12;0.60;;;0.60;;
20294;SDS011;10306;52.128;5.208;2023-04-03T10:55:24;0.93;;;0.63;;
20294;SDS011;10306;52.128;5.208;2023-04-03T10:57:29;0.67;;;0.67;;
20294;SDS011;10306;52.128;5.208;2023-04-03T11:02:27;0.73;;;0.50;;
20294;SDS011;10306;52.128;5.208;2023-04-03T11:04:56;0.40;;;0.40;;
20294;SDS011;10306;52.128;5.208;2023-04-03T11:07:29;0.50;;;0.50;;
20294;SDS011;10306;52.128;5.208;2023-04-03T11:10:02;0.50;;;0.50;;
20294;SDS011;10306;52.128;5.208;2023-04-03T11:12:52;0.60;;;0.60;;
20294;SDS011;10306;52.128;5.208;2023-04-03T11:15:16;0.60;;;0.60;;
20294;SDS011;10306;52.128;5.208;2023-04-03T11:17:52;1.50;;;0.60;;
20294;SDS011;10306;52.128;5.208;2023-04-03T11:20:22;1.07;;;0.60;;
20294;SDS011;10306;52.128;5.208;2023-04-03T11:23:03;0.63;;;0.50;;
20294;SDS011;10306;52.128;5.208;2023-04-03T11:25:31;0.70;;;0.70;;
20294;SDS011;10306;52.128;5.208;2023-04-03T11:28:01;0.40;;;0.40;;
20294;SDS011;10306;52.128;5.208;2023-04-03T11:30:39;3.67;;;0.60;;
20294;SDS011;10306;52.128;5.208;2023-04-03T11:35:57;0.50;;;0.50;;
20294;SDS011;10306;52.128;5.208;2023-04-03T11:38:28;0.50;;;0.50;;
20294;SDS011;10306;52.128;5.208;2023-04-03T11:40:56;0.60;;;0.60;;
20294;SDS011;10306;52.128;5.208;2023-04-03T11:43:24;0.50;;;0.50;;
20294;SDS011;10306;52.128;5.208;2023-04-03T11:46:01;1.20;;;0.80;;
20294;SDS011;10306;52.128;5.208;2023-04-03T11:50:54;0.50;;;0.50;;
20294;SDS011;10306;52.128;5.208;2023-04-03T11:53:28;0.77;;;0.50;;
20294;SDS011;10306;52.128;5.208;2023-04-03T12:01:45;2.07;;;0.43;;
20294;SDS011;10306;52.128;5.208;2023-04-03T12:04:12;0.60;;;0.60;;
20294;SDS011;10306;52.128;5.208;2023-04-03T12:09:22;1.40;;;0.73;;
20294;SDS011;10306;52.128;5.208;2023-04-03T12:11:48;0.70;;;0.60;;
20294;SDS011;10306;52.128;5.208;2023-04-03T12:14:15;0.60;;;0.60;;
20294;SDS011;10306;52.128;5.208;2023-04-03T12:26:48;1.13;;;0.70;;
20294;SDS011;10306;52.128;5.208;2023-04-03T12:39:55;0.70;;;0.70;;
20294;SDS011;10306;52.128;5.208;2023-04-03T12:47:29;1.67;;;0.70;;
20294;SDS011;10306;52.128;5.208;2023-04-03T12:49:58;1.43;;;0.90;;
20294;SDS011;10306;52.128;5.208;2023-04-03T12:52:41;4.17;;;0.70;;
20294;SDS011;10306;52.128;5.208;2023-04-03T12:55:13;1.33;;;0.80;;
20294;SDS011;10306;52.128;5.208;2023-04-03T12:57:40;1.07;;;0.63;;
20294;SDS011;10306;52.128;5.208;2023-04-03T13:00:21;0.70;;;0.70;;
20294;SDS011;10306;52.128;5.208;2023-04-03T13:02:48;0.77;;;0.77;;
20294;SDS011;10306;52.128;5.208;2023-04-03T13:05:16;0.70;;;0.70;;
20294;SDS011;10306;52.128;5.208;2023-04-03T13:07:42;1.17;;;0.80;;
20294;SDS011;10306;52.128;5.208;2023-04-03T13:12:35;0.90;;;0.90;;
20294;SDS011;10306;52.128;5.208;2023-04-03T13:15:45;0.57;;;0.57;;
20294;SDS011;10306;52.128;5.208;2023-04-03T13:18:03;0.70;;;0.70;;
20294;SDS011;10306;52.128;5.208;2023-04-03T13:20:30;0.70;;;0.70;;
20294;SDS011;10306;52.128;5.208;2023-04-03T13:22:59;0.73;;;0.70;;
20294;SDS011;10306;52.128;5.208;2023-04-03T13:25:26;0.98;;;0.60;;
20294;SDS011;10306;52.128;5.208;2023-04-03T13:27:53;0.82;;;0.82;;
20294;SDS011;10306;52.128;5.208;2023-04-03T13:32:51;1.35;;;1.25;;
20294;SDS011;10306;52.128;5.208;2023-04-03T13:35:27;0.65;;;0.65;;
20294;SDS011;10306;52.128;5.208;2023-04-03T13:37:54;0.82;;;0.82;;
20294;SDS011;10306;52.128;5.208;2023-04-03T13:40:20;0.82;;;0.70;;
20294;SDS011;10306;52.128;5.208;2023-04-03T13:42:57;0.70;;;0.70;;
20294;SDS011;10306;52.128;5.208;2023-04-03T13:45:24;0.73;;;0.73;;
20294;SDS011;10306;52.128;5.208;2023-04-03T13:47:53;0.70;;;0.70;;
20294;SDS011;10306;52.128;5.208;2023-04-03T13:50:21;0.70;;;0.70;;
20294;SDS011;10306;52.128;5.208;2023-04-03T13:52:52;0.65;;;0.65;;
20294;SDS011;10306;52.128;5.208;2023-04-03T13:55:26;0.77;;;0.77;;
20294;SDS011;10306;52.128;5.208;2023-04-03T14:02:53;1.90;;;1.05;;
20294;SDS011;10306;52.128;5.208;2023-04-03T14:05:21;0.82;;;0.80;;
20294;SDS011;10306;52.128;5.208;2023-04-03T14:07:48;1.17;;;1.00;;
20294;SDS011;10306;52.128;5.208;2023-04-03T14:10:14;1.58;;;1.00;;
20294;SDS011;10306;52.128;5.208;2023-04-03T14:12:40;0.75;;;0.73;;
20294;SDS011;10306;52.128;5.208;2023-04-03T14:15:20;0.85;;;0.85;;
20294;SDS011;10306;52.128;5.208;2023-04-03T14:17:48;1.00;;;1.00;;
20294;SDS011;10306;52.128;5.208;2023-04-03T14:20:16;1.00;;;1.00;;
20294;SDS011;10306;52.128;5.208;2023-04-03T14:22:43;0.80;;;0.80;;
20294;SDS011;10306;52.128;5.208;2023-04-03T14:25:09;0.80;;;0.80;;
20294;SDS011;10306;52.128;5.208;2023-04-03T14:27:37;1.02;;;0.93;;
20294;SDS011;10306;52.128;5.208;2023-04-03T14:30:05;0.80;;;0.80;;
20294;SDS011;10306;52.128;5.208;2023-04-03T14:32:33;1.67;;;1.00;;
20294;SDS011;10306;52.128;5.208;2023-04-03T14:34:59;0.80;;;0.80;;
20294;SDS011;10306;52.128;5.208;2023-04-03T14:37:27;1.00;;;0.80;;
20294;SDS011;10306;52.128;5.208;2023-04-03T14:39:54;2.13;;;0.80;;
20294;SDS011;10306;52.128;5.208;2023-04-03T14:42:22;1.10;;;1.10;;
20294;SDS011;10306;52.128;5.208;2023-04-03T14:44:49;0.97;;;0.90;;
20294;SDS011;10306;52.128;5.208;2023-04-03T14:47:16;0.87;;;0.70;;
20294;SDS011;10306;52.128;5.208;2023-04-03T14:49:42;1.00;;;1.00;;
20294;SDS011;10306;52.128;5.208;2023-04-03T14:52:15;1.43;;;0.70;;
20294;SDS011;10306;52.128;5.208;2023-04-03T14:54:42;0.93;;;0.90;;
20294;SDS011;10306;52.128;5.208;2023-04-03T14:57:08;0.90;;;0.90;;
20294;SDS011;10306;52.128;5.208;2023-04-03T14:59:37;0.90;;;0.90;;
20294;SDS011;10306;52.128;5.208;2023-04-03T15:02:08;1.10;;;1.00;;
20294;SDS011;10306;52.128;5.208;2023-04-03T15:04:37;1.77;;;1.00;;
20294;SDS011;10306;52.128;5.208;2023-04-03T15:07:03;1.10;;;1.00;;
20294;SDS011;10306;52.128;5.208;2023-04-03T15:09:29;1.37;;;1.13;;
20294;SDS011;10306;52.128;5.208;2023-04-03T15:11:55;0.70;;;0.70;;
20294;SDS011;10306;52.128;5.208;2023-04-03T15:14:21;0.80;;;0.80;;
20294;SDS011;10306;52.128;5.208;2023-04-03T15:16:48;0.97;;;0.90;;
20294;SDS011;10306;52.128;5.208;2023-04-03T15:19:14;3.80;;;1.33;;
20294;SDS011;10306;52.128;5.208;2023-04-03T15:21:40;1.00;;;1.00;;
20294;SDS011;10306;52.128;5.208;2023-04-03T15:24:06;0.93;;;0.87;;
20294;SDS011;10306;52.128;5.208;2023-04-03T15:26:32;1.03;;;1.03;;
20294;SDS011;10306;52.128;5.208;2023-04-03T15:28:58;1.03;;;1.03;;
20294;SDS011;10306;52.128;5.208;2023-04-03T15:31:24;1.50;;;1.27;;
20294;SDS011;10306;52.128;5.208;2023-04-03T15:33:50;1.90;;;1.20;;
20294;SDS011;10306;52.128;5.208;2023-04-03T15:36:16;1.80;;;1.20;;
20294;SDS011;10306;52.128;5.208;2023-04-03T15:38:42;1.03;;;1.03;;
20294;SDS011;10306;52.128;5.208;2023-04-03T15:41:08;3.40;;;1.13;;
20294;SDS011;10306;52.128;5.208;2023-04-03T15:43:34;1.30;;;1.20;;
20294;SDS011;10306;52.128;5.208;2023-04-03T15:46:00;0.90;;;0.90;;
20294;SDS011;10306;52.128;5.208;2023-04-03T15:48:26;2.00;;;1.40;;
20294;SDS011;10306;52.128;5.208;2023-04-03T15:50:53;2.57;;;1.20;;
20294;SDS011;10306;52.128;5.208;2023-04-03T15:53:19;0.93;;;0.90;;
20294;SDS011;10306;52.128;5.208;2023-04-03T15:55:45;1.73;;;1.30;;
20294;SDS011;10306;52.128;5.208;2023-04-03T15:58:11;1.10;;;1.10;;
20294;SDS011;10306;52.128;5.208;2023-04-03T16:00:37;1.40;;;1.33;;
20294;SDS011;10306;52.128;5.208;2023-04-03T16:03:10;1.23;;;1.13;;
20294;SDS011;10306;52.128;5.208;2023-04-03T16:05:37;1.80;;;1.43;;
20294;SDS011;10306;52.128;5.208;2023-04-03T16:08:04;1.43;;;1.33;;
20294;SDS011;10306;52.128;5.208;2023-04-03T16:10:32;1.17;;;1.17;;
20294;SDS011;10306;52.128;5.208;2023-04-03T16:12:58;1.03;;;1.00;;
20294;SDS011;10306;52.128;5.208;2023-04-03T16:15:24;1.53;;;1.43;;
20294;SDS011;10306;52.128;5.208;2023-04-03T16:17:51;1.50;;;1.27;;
20294;SDS011;10306;52.128;5.208;2023-04-03T16:20:18;1.70;;;1.37;;
20294;SDS011;10306;52.128;5.208;2023-04-03T16:22:45;1.10;;;1.10;;
20294;SDS011;10306;52.128;5.208;2023-04-03T16:25:11;2.27;;;1.37;;
20294;SDS011;10306;52.128;5.208;2023-04-03T16:27:37;1.57;;;1.47;;